sensor_id;sensor_type;location;lat;lon;timestamp;pressure;altitude;pressure_sealevel;temperature
68952;BMP180;56000;51.146;17.112;2022-11-11T00:01:03;101625.80;;;6.90
68952;BMP180;56000;51.146;17.112;2022-11-11T00:03:54;101635.60;;;6.80
68952;BMP180;56000;51.146;17.112;2022-11-11T00:06:44;101630.40;;;6.80
68952;BMP180;56000;51.146;17.112;2022-11-11T00:09:34;101626.00;;;6.70
68952;BMP180;56000;51.146;17.112;2022-11-11T00:12:24;101620.40;;;6.60
68952;BMP180;56000;51.146;17.112;2022-11-11T00:15:15;101616.60;;;6.60
68952;BMP180;56000;51.146;17.112;2022-11-11T00:18:04;101613.60;;;6.54
68952;BMP180;56000;51.146;17.112;2022-11-11T00:21:14;101609.40;;;6.50
68952;BMP180;56000;51.146;17.112;2022-11-11T00:24:23;101604.80;;;6.60
68952;BMP180;56000;51.146;17.112;2022-11-11T00:27:31;101604.80;;;6.60
68952;BMP180;56000;51.146;17.112;2022-11-11T00:30:20;101599.00;;;6.70
68952;BMP180;56000;51.146;17.112;2022-11-11T00:33:10;101602.80;;;6.90
68952;BMP180;56000;51.146;17.112;2022-11-11T00:36:00;101608.60;;;7.00
68952;BMP180;56000;51.146;17.112;2022-11-11T00:38:50;101603.00;;;7.10
68952;BMP180;56000;51.146;17.112;2022-11-11T00:41:42;101600.60;;;7.30
68952;BMP180;56000;51.146;17.112;2022-11-11T00:44:32;101602.20;;;7.30
68952;BMP180;56000;51.146;17.112;2022-11-11T00:47:21;101604.80;;;7.20
68952;BMP180;56000;51.146;17.112;2022-11-11T00:50:29;101600.20;;;7.10
68952;BMP180;56000;51.146;17.112;2022-11-11T00:53:37;101597.20;;;7.10
68952;BMP180;56000;51.146;17.112;2022-11-11T00:56:28;101596.00;;;7.10
68952;BMP180;56000;51.146;17.112;2022-11-11T00:59:17;101598.00;;;7.14
68952;BMP180;56000;51.146;17.112;2022-11-11T01:02:07;101603.80;;;7.22
68952;BMP180;56000;51.146;17.112;2022-11-11T01:04:56;101610.40;;;7.30
68952;BMP180;56000;51.146;17.112;2022-11-11T01:07:48;101610.20;;;7.40
68952;BMP180;56000;51.146;17.112;2022-11-11T01:10:38;101604.80;;;7.40
68952;BMP180;56000;51.146;17.112;2022-11-11T01:13:32;101600.20;;;7.46
68952;BMP180;56000;51.146;17.112;2022-11-11T01:16:23;101612.60;;;7.50
68952;BMP180;56000;51.146;17.112;2022-11-11T01:19:13;101619.60;;;7.54
68952;BMP180;56000;51.146;17.112;2022-11-11T01:22:03;101620.80;;;7.50
68952;BMP180;56000;51.146;17.112;2022-11-11T01:24:52;101620.40;;;7.50
68952;BMP180;56000;51.146;17.112;2022-11-11T01:27:42;101616.20;;;7.60
68952;BMP180;56000;51.146;17.112;2022-11-11T01:30:32;101612.20;;;7.70
68952;BMP180;56000;51.146;17.112;2022-11-11T01:33:21;101618.40;;;7.80
68952;BMP180;56000;51.146;17.112;2022-11-11T01:36:12;101616.40;;;7.72
68952;BMP180;56000;51.146;17.112;2022-11-11T01:39:02;101609.00;;;7.72
68952;BMP180;56000;51.146;17.112;2022-11-11T01:41:52;101606.40;;;7.80
68952;BMP180;56000;51.146;17.112;2022-11-11T01:44:48;101603.20;;;7.80
68952;BMP180;56000;51.146;17.112;2022-11-11T01:47:38;101601.00;;;7.80
68952;BMP180;56000;51.146;17.112;2022-11-11T01:51:06;101597.20;;;7.70
68952;BMP180;56000;51.146;17.112;2022-11-11T01:54:01;101590.80;;;7.70
68952;BMP180;56000;51.146;17.112;2022-11-11T01:56:55;101589.60;;;7.70
68952;BMP180;56000;51.146;17.112;2022-11-11T01:59:47;101586.60;;;7.70
68952;BMP180;56000;51.146;17.112;2022-11-11T02:02:40;101580.20;;;7.80
68952;BMP180;56000;51.146;17.112;2022-11-11T02:05:31;101582.60;;;7.80
68952;BMP180;56000;51.146;17.112;2022-11-11T02:08:34;101584.00;;;7.80
68952;BMP180;56000;51.146;17.112;2022-11-11T02:11:25;101582.00;;;7.70
68952;BMP180;56000;51.146;17.112;2022-11-11T02:14:34;101581.60;;;7.64
68952;BMP180;56000;51.146;17.112;2022-11-11T02:17:31;101577.00;;;7.60
68952;BMP180;56000;51.146;17.112;2022-11-11T02:20:22;101571.00;;;7.50
68952;BMP180;56000;51.146;17.112;2022-11-11T02:23:14;101579.00;;;7.40
68952;BMP180;56000;51.146;17.112;2022-11-11T02:26:05;101580.20;;;7.34
68952;BMP180;56000;51.146;17.112;2022-11-11T02:28:55;101586.00;;;7.26
68952;BMP180;56000;51.146;17.112;2022-11-11T02:31:45;101595.00;;;7.20
68952;BMP180;56000;51.146;17.112;2022-11-11T02:34:35;101600.20;;;7.10
68952;BMP180;56000;51.146;17.112;2022-11-11T02:37:25;101599.40;;;7.00
68952;BMP180;56000;51.146;17.112;2022-11-11T02:40:17;101600.20;;;6.90
68952;BMP180;56000;51.146;17.112;2022-11-11T02:43:09;101604.40;;;6.80
68952;BMP180;56000;51.146;17.112;2022-11-11T02:45:59;101605.00;;;6.70
68952;BMP180;56000;51.146;17.112;2022-11-11T02:48:49;101602.40;;;6.60
68952;BMP180;56000;51.146;17.112;2022-11-11T02:51:39;101599.60;;;6.50
68952;BMP180;56000;51.146;17.112;2022-11-11T02:54:29;101588.20;;;6.42
68952;BMP180;56000;51.146;17.112;2022-11-11T02:57:18;101581.60;;;6.38
68952;BMP180;56000;51.146;17.112;2022-11-11T03:00:10;101589.40;;;6.30
68952;BMP180;56000;51.146;17.112;2022-11-11T03:03:00;101587.00;;;6.24
68952;BMP180;56000;51.146;17.112;2022-11-11T03:05:50;101582.00;;;6.20
68952;BMP180;56000;51.146;17.112;2022-11-11T03:08:39;101578.00;;;6.20
68952;BMP180;56000;51.146;17.112;2022-11-11T03:11:29;101585.20;;;6.20
68952;BMP180;56000;51.146;17.112;2022-11-11T03:14:18;101587.00;;;6.20
68952;BMP180;56000;51.146;17.112;2022-11-11T03:17:08;101589.20;;;6.22
68952;BMP180;56000;51.146;17.112;2022-11-11T03:20:16;101599.40;;;6.24
68952;BMP180;56000;51.146;17.112;2022-11-11T03:23:23;101601.60;;;6.22
68952;BMP180;56000;51.146;17.112;2022-11-11T03:26:13;101593.20;;;6.20
68952;BMP180;56000;51.146;17.112;2022-11-11T03:29:04;101597.60;;;6.20
68952;BMP180;56000;51.146;17.112;2022-11-11T03:31:53;101605.40;;;6.22
68952;BMP180;56000;51.146;17.112;2022-11-11T03:34:43;101608.20;;;6.30
68952;BMP180;56000;51.146;17.112;2022-11-11T03:37:32;101608.60;;;6.30
68952;BMP180;56000;51.146;17.112;2022-11-11T03:40:39;101619.60;;;6.40
68952;BMP180;56000;51.146;17.112;2022-11-11T03:43:30;101617.40;;;6.40
68952;BMP180;56000;51.146;17.112;2022-11-11T03:46:20;101617.20;;;6.50
68952;BMP180;56000;51.146;17.112;2022-11-11T03:49:09;101620.60;;;6.50
68952;BMP180;56000;51.146;17.112;2022-11-11T03:51:58;101619.20;;;6.50
68952;BMP180;56000;51.146;17.112;2022-11-11T03:54:48;101626.60;;;6.54
68952;BMP180;56000;51.146;17.112;2022-11-11T03:57:41;101631.40;;;6.60
68952;BMP180;56000;51.146;17.112;2022-11-11T04:00:31;101633.80;;;6.60
68952;BMP180;56000;51.146;17.112;2022-11-11T04:03:20;101641.40;;;6.60
68952;BMP180;56000;51.146;17.112;2022-11-11T04:06:33;101644.20;;;6.70
68952;BMP180;56000;51.146;17.112;2022-11-11T04:09:40;101637.00;;;6.70
68952;BMP180;56000;51.146;17.112;2022-11-11T04:12:47;101642.00;;;6.70
68952;BMP180;56000;51.146;17.112;2022-11-11T04:15:54;101648.00;;;6.70
68952;BMP180;56000;51.146;17.112;2022-11-11T04:18:55;101648.40;;;6.80
68952;BMP180;56000;51.146;17.112;2022-11-11T04:22:02;101647.40;;;6.80
68952;BMP180;56000;51.146;17.112;2022-11-11T04:24:51;101649.00;;;6.80
68952;BMP180;56000;51.146;17.112;2022-11-11T04:27:59;101645.00;;;6.80
68952;BMP180;56000;51.146;17.112;2022-11-11T04:31:02;101642.20;;;6.76
68952;BMP180;56000;51.146;17.112;2022-11-11T04:33:51;101644.40;;;6.70
68952;BMP180;56000;51.146;17.112;2022-11-11T04:36:40;101650.40;;;6.70
68952;BMP180;56000;51.146;17.112;2022-11-11T04:39:30;101650.20;;;6.70
68952;BMP180;56000;51.146;17.112;2022-11-11T04:42:37;101641.60;;;6.70
68952;BMP180;56000;51.146;17.112;2022-11-11T04:45:26;101634.20;;;6.70
68952;BMP180;56000;51.146;17.112;2022-11-11T04:48:18;101643.80;;;6.70
68952;BMP180;56000;51.146;17.112;2022-11-11T04:51:08;101651.00;;;6.70
68952;BMP180;56000;51.146;17.112;2022-11-11T04:53:57;101651.80;;;6.62
68952;BMP180;56000;51.146;17.112;2022-11-11T04:56:46;101653.00;;;6.60
68952;BMP180;56000;51.146;17.112;2022-11-11T04:59:37;101651.20;;;6.60
68952;BMP180;56000;51.146;17.112;2022-11-11T05:02:27;101644.20;;;6.60
68952;BMP180;56000;51.146;17.112;2022-11-11T05:05:33;101637.60;;;6.58
68952;BMP180;56000;51.146;17.112;2022-11-11T05:08:38;101630.20;;;6.50
68952;BMP180;56000;51.146;17.112;2022-11-11T05:11:46;101629.20;;;6.50
68952;BMP180;56000;51.146;17.112;2022-11-11T05:14:36;101624.20;;;6.50
68952;BMP180;56000;51.146;17.112;2022-11-11T05:17:42;101624.00;;;6.40
68952;BMP180;56000;51.146;17.112;2022-11-11T05:20:49;101622.20;;;6.40
68952;BMP180;56000;51.146;17.112;2022-11-11T05:23:56;101622.00;;;6.40
68952;BMP180;56000;51.146;17.112;2022-11-11T05:27:04;101623.80;;;6.40
68952;BMP180;56000;51.146;17.112;2022-11-11T05:29:53;101628.80;;;6.40
68952;BMP180;56000;51.146;17.112;2022-11-11T05:32:43;101630.00;;;6.40
68952;BMP180;56000;51.146;17.112;2022-11-11T05:35:32;101634.00;;;6.38
68952;BMP180;56000;51.146;17.112;2022-11-11T05:38:23;101634.00;;;6.40
68952;BMP180;56000;51.146;17.112;2022-11-11T05:41:13;101636.00;;;6.40
68952;BMP180;56000;51.146;17.112;2022-11-11T05:44:02;101636.60;;;6.40
68952;BMP180;56000;51.146;17.112;2022-11-11T05:46:52;101637.60;;;6.40
68952;BMP180;56000;51.146;17.112;2022-11-11T05:49:41;101639.00;;;6.40
68952;BMP180;56000;51.146;17.112;2022-11-11T05:52:31;101644.40;;;6.40
68952;BMP180;56000;51.146;17.112;2022-11-11T05:55:20;101639.00;;;6.40
68952;BMP180;56000;51.146;17.112;2022-11-11T05:58:10;101639.60;;;6.40
68952;BMP180;56000;51.146;17.112;2022-11-11T06:00:59;101639.00;;;6.40
68952;BMP180;56000;51.146;17.112;2022-11-11T06:03:49;101648.20;;;6.44
68952;BMP180;56000;51.146;17.112;2022-11-11T06:06:38;101652.20;;;6.50
68952;BMP180;56000;51.146;17.112;2022-11-11T06:09:28;101666.40;;;6.50
68952;BMP180;56000;51.146;17.112;2022-11-11T06:12:18;101675.20;;;6.60
68952;BMP180;56000;51.146;17.112;2022-11-11T06:15:09;101679.00;;;6.60
68952;BMP180;56000;51.146;17.112;2022-11-11T06:17:58;101683.20;;;6.62
68952;BMP180;56000;51.146;17.112;2022-11-11T06:20:53;101682.60;;;6.70
68952;BMP180;56000;51.146;17.112;2022-11-11T06:23:42;101677.20;;;6.80
68952;BMP180;56000;51.146;17.112;2022-11-11T06:26:32;101668.60;;;6.80
68952;BMP180;56000;51.146;17.112;2022-11-11T06:29:22;101672.60;;;6.80
68952;BMP180;56000;51.146;17.112;2022-11-11T06:32:11;101669.20;;;6.90
68952;BMP180;56000;51.146;17.112;2022-11-11T06:35:01;101670.40;;;6.90
68952;BMP180;56000;51.146;17.112;2022-11-11T06:37:50;101674.60;;;7.00
68952;BMP180;56000;51.146;17.112;2022-11-11T06:40:40;101677.60;;;7.08
68952;BMP180;56000;51.146;17.112;2022-11-11T06:43:30;101676.40;;;7.10
68952;BMP180;56000;51.146;17.112;2022-11-11T06:46:24;101675.60;;;7.22
68952;BMP180;56000;51.146;17.112;2022-11-11T06:49:14;101684.00;;;7.32
68952;BMP180;56000;51.146;17.112;2022-11-11T06:52:03;101674.40;;;7.40
68952;BMP180;56000;51.146;17.112;2022-11-11T06:54:53;101684.40;;;7.50
68952;BMP180;56000;51.146;17.112;2022-11-11T06:57:43;101697.00;;;7.50
68952;BMP180;56000;51.146;17.112;2022-11-11T07:00:32;101691.40;;;7.60
68952;BMP180;56000;51.146;17.112;2022-11-11T07:03:22;101688.60;;;7.66
68952;BMP180;56000;51.146;17.112;2022-11-11T07:06:13;101672.20;;;7.70
68952;BMP180;56000;51.146;17.112;2022-11-11T07:09:02;101667.00;;;7.80
68952;BMP180;56000;51.146;17.112;2022-11-11T07:11:51;101665.40;;;7.80
68952;BMP180;56000;51.146;17.112;2022-11-11T07:14:40;101664.80;;;7.90
68952;BMP180;56000;51.146;17.112;2022-11-11T07:17:30;101669.60;;;8.00
68952;BMP180;56000;51.146;17.112;2022-11-11T07:20:20;101664.80;;;8.10
68952;BMP180;56000;51.146;17.112;2022-11-11T07:23:09;101667.40;;;8.18
68952;BMP180;56000;51.146;17.112;2022-11-11T07:25:58;101666.60;;;8.28
68952;BMP180;56000;51.146;17.112;2022-11-11T07:28:48;101672.80;;;8.40
68952;BMP180;56000;51.146;17.112;2022-11-11T07:31:38;101673.80;;;8.50
68952;BMP180;56000;51.146;17.112;2022-11-11T07:34:28;101677.40;;;8.60
68952;BMP180;56000;51.146;17.112;2022-11-11T07:37:17;101672.80;;;8.78
68952;BMP180;56000;51.146;17.112;2022-11-11T07:40:09;101663.20;;;8.86
68952;BMP180;56000;51.146;17.112;2022-11-11T07:42:59;101667.80;;;8.94
68952;BMP180;56000;51.146;17.112;2022-11-11T07:45:48;101672.00;;;9.00
68952;BMP180;56000;51.146;17.112;2022-11-11T07:48:37;101671.20;;;9.10
68952;BMP180;56000;51.146;17.112;2022-11-11T07:51:27;101665.00;;;9.20
68952;BMP180;56000;51.146;17.112;2022-11-11T07:54:16;101669.00;;;9.20
68952;BMP180;56000;51.146;17.112;2022-11-11T07:57:06;101673.60;;;9.30
68952;BMP180;56000;51.146;17.112;2022-11-11T07:59:55;101677.00;;;9.30
68952;BMP180;56000;51.146;17.112;2022-11-11T08:02:48;101682.40;;;9.40
68952;BMP180;56000;51.146;17.112;2022-11-11T08:05:40;101677.00;;;9.40
68952;BMP180;56000;51.146;17.112;2022-11-11T08:08:29;101678.80;;;9.50
68952;BMP180;56000;51.146;17.112;2022-11-11T08:11:18;101681.80;;;9.60
68952;BMP180;56000;51.146;17.112;2022-11-11T08:14:27;101679.20;;;9.70
68952;BMP180;56000;51.146;17.112;2022-11-11T08:17:17;101682.00;;;9.80
68952;BMP180;56000;51.146;17.112;2022-11-11T08:20:08;101687.00;;;9.90
68952;BMP180;56000;51.146;17.112;2022-11-11T08:22:58;101688.20;;;10.00
68952;BMP180;56000;51.146;17.112;2022-11-11T08:26:07;101683.60;;;10.18
68952;BMP180;56000;51.146;17.112;2022-11-11T08:28:57;101685.60;;;10.28
68952;BMP180;56000;51.146;17.112;2022-11-11T08:31:46;101689.60;;;10.38
68952;BMP180;56000;51.146;17.112;2022-11-11T08:34:36;101694.60;;;10.50
68952;BMP180;56000;51.146;17.112;2022-11-11T08:37:26;101700.40;;;10.60
68952;BMP180;56000;51.146;17.112;2022-11-11T08:40:16;101705.40;;;10.70
68952;BMP180;56000;51.146;17.112;2022-11-11T08:43:05;101702.20;;;10.80
68952;BMP180;56000;51.146;17.112;2022-11-11T08:45:55;101701.00;;;10.92
68952;BMP180;56000;51.146;17.112;2022-11-11T08:48:44;101707.00;;;11.04
68952;BMP180;56000;51.146;17.112;2022-11-11T08:51:34;101708.40;;;11.14
68952;BMP180;56000;51.146;17.112;2022-11-11T08:54:31;101699.00;;;11.22
68952;BMP180;56000;51.146;17.112;2022-11-11T08:57:20;101693.00;;;11.30
68952;BMP180;56000;51.146;17.112;2022-11-11T09:00:12;101688.20;;;11.40
68952;BMP180;56000;51.146;17.112;2022-11-11T09:03:02;101699.00;;;11.40
68952;BMP180;56000;51.146;17.112;2022-11-11T09:05:52;101707.40;;;11.44
68952;BMP180;56000;51.146;17.112;2022-11-11T09:08:43;101708.00;;;11.52
68952;BMP180;56000;51.146;17.112;2022-11-11T09:11:32;101708.60;;;11.62
68952;BMP180;56000;51.146;17.112;2022-11-11T09:14:23;101711.60;;;11.80
68952;BMP180;56000;51.146;17.112;2022-11-11T09:17:13;101706.80;;;11.90
68952;BMP180;56000;51.146;17.112;2022-11-11T09:20:02;101709.20;;;12.00
68952;BMP180;56000;51.146;17.112;2022-11-11T09:22:51;101711.40;;;12.14
68952;BMP180;56000;51.146;17.112;2022-11-11T09:25:41;101718.00;;;12.30
68952;BMP180;56000;51.146;17.112;2022-11-11T09:28:32;101720.80;;;12.50
68952;BMP180;56000;51.146;17.112;2022-11-11T09:31:21;101718.60;;;12.80
68952;BMP180;56000;51.146;17.112;2022-11-11T09:34:31;101715.00;;;13.16
68952;BMP180;56000;51.146;17.112;2022-11-11T09:37:21;101715.60;;;13.50
68952;BMP180;56000;51.146;17.112;2022-11-11T09:40:15;101719.20;;;13.70
68952;BMP180;56000;51.146;17.112;2022-11-11T09:43:11;101724.40;;;13.80
68952;BMP180;56000;51.146;17.112;2022-11-11T09:46:11;101712.00;;;13.90
68952;BMP180;56000;51.146;17.112;2022-11-11T09:49:25;101715.60;;;14.10
68952;BMP180;56000;51.146;17.112;2022-11-11T09:52:17;101712.40;;;14.20
68952;BMP180;56000;51.146;17.112;2022-11-11T09:55:14;101710.60;;;14.30
68952;BMP180;56000;51.146;17.112;2022-11-11T09:58:09;101706.20;;;14.50
68952;BMP180;56000;51.146;17.112;2022-11-11T10:01:01;101698.40;;;14.78
68952;BMP180;56000;51.146;17.112;2022-11-11T10:03:59;101693.20;;;15.18
68952;BMP180;56000;51.146;17.112;2022-11-11T10:06:50;101697.60;;;15.54
68952;BMP180;56000;51.146;17.112;2022-11-11T10:09:43;101699.00;;;15.90
68952;BMP180;56000;51.146;17.112;2022-11-11T10:12:36;101700.40;;;16.20
68952;BMP180;56000;51.146;17.112;2022-11-11T10:15:34;101699.20;;;16.30
68952;BMP180;56000;51.146;17.112;2022-11-11T10:18:41;101695.80;;;16.56
68952;BMP180;56000;51.146;17.112;2022-11-11T10:21:39;101695.20;;;16.90
68952;BMP180;56000;51.146;17.112;2022-11-11T10:24:52;101693.20;;;17.20
68952;BMP180;56000;51.146;17.112;2022-11-11T10:27:50;101697.20;;;17.40
68952;BMP180;56000;51.146;17.112;2022-11-11T10:30:40;101702.20;;;17.40
68952;BMP180;56000;51.146;17.112;2022-11-11T10:33:42;101696.00;;;17.26
68952;BMP180;56000;51.146;17.112;2022-11-11T10:36:34;101697.20;;;16.92
68952;BMP180;56000;51.146;17.112;2022-11-11T10:39:29;101699.40;;;16.80
68952;BMP180;56000;51.146;17.112;2022-11-11T10:42:22;101696.40;;;16.60
68952;BMP180;56000;51.146;17.112;2022-11-11T10:45:12;101690.40;;;16.40
68952;BMP180;56000;51.146;17.112;2022-11-11T10:48:04;101685.60;;;16.24
68952;BMP180;56000;51.146;17.112;2022-11-11T10:50:55;101685.60;;;16.10
68952;BMP180;56000;51.146;17.112;2022-11-11T10:53:50;101689.40;;;16.00
68952;BMP180;56000;51.146;17.112;2022-11-11T10:56:42;101685.20;;;15.90
68952;BMP180;56000;51.146;17.112;2022-11-11T10:59:36;101689.80;;;15.80
68952;BMP180;56000;51.146;17.112;2022-11-11T11:02:29;101686.00;;;15.70
68952;BMP180;56000;51.146;17.112;2022-11-11T11:05:21;101689.80;;;15.70
68952;BMP180;56000;51.146;17.112;2022-11-11T11:08:13;101684.40;;;15.80
68952;BMP180;56000;51.146;17.112;2022-11-11T11:11:06;101687.40;;;15.80
68952;BMP180;56000;51.146;17.112;2022-11-11T11:14:00;101684.40;;;15.90
68952;BMP180;56000;51.146;17.112;2022-11-11T11:16:52;101681.20;;;15.90
68952;BMP180;56000;51.146;17.112;2022-11-11T11:19:43;101676.00;;;15.90
68952;BMP180;56000;51.146;17.112;2022-11-11T11:22:45;101682.00;;;16.00
68952;BMP180;56000;51.146;17.112;2022-11-11T11:25:35;101680.20;;;16.10
68952;BMP180;56000;51.146;17.112;2022-11-11T11:28:25;101674.80;;;16.10
68952;BMP180;56000;51.146;17.112;2022-11-11T11:31:15;101680.80;;;16.00
68952;BMP180;56000;51.146;17.112;2022-11-11T11:34:04;101675.00;;;16.00
68952;BMP180;56000;51.146;17.112;2022-11-11T11:37:00;101669.00;;;16.02
68952;BMP180;56000;51.146;17.112;2022-11-11T11:39:57;101684.60;;;16.10
68952;BMP180;56000;51.146;17.112;2022-11-11T11:42:47;101691.60;;;16.20
68952;BMP180;56000;51.146;17.112;2022-11-11T11:45:36;101685.00;;;16.30
68952;BMP180;56000;51.146;17.112;2022-11-11T11:48:32;101671.80;;;16.40
68952;BMP180;56000;51.146;17.112;2022-11-11T11:51:30;101661.80;;;16.46
68952;BMP180;56000;51.146;17.112;2022-11-11T11:54:29;101662.60;;;16.50
68952;BMP180;56000;51.146;17.112;2022-11-11T11:57:27;101672.00;;;16.60
68952;BMP180;56000;51.146;17.112;2022-11-11T12:00:20;101664.00;;;16.60
68952;BMP180;56000;51.146;17.112;2022-11-11T12:03:24;101657.40;;;16.68
68952;BMP180;56000;51.146;17.112;2022-11-11T12:06:18;101659.60;;;16.70
68952;BMP180;56000;51.146;17.112;2022-11-11T12:09:17;101669.60;;;16.70
68952;BMP180;56000;51.146;17.112;2022-11-11T12:12:14;101671.80;;;16.70
68952;BMP180;56000;51.146;17.112;2022-11-11T12:15:13;101665.40;;;16.74
68952;BMP180;56000;51.146;17.112;2022-11-11T12:18:17;101671.00;;;16.90
68952;BMP180;56000;51.146;17.112;2022-11-11T12:21:10;101674.80;;;17.00
68952;BMP180;56000;51.146;17.112;2022-11-11T12:24:03;101671.00;;;17.00
68952;BMP180;56000;51.146;17.112;2022-11-11T12:27:00;101666.40;;;17.00
68952;BMP180;56000;51.146;17.112;2022-11-11T12:30:01;101651.40;;;16.82
68952;BMP180;56000;51.146;17.112;2022-11-11T12:33:01;101650.40;;;16.66
68952;BMP180;56000;51.146;17.112;2022-11-11T12:36:02;101649.80;;;16.60
68952;BMP180;56000;51.146;17.112;2022-11-11T12:38:57;101642.80;;;16.50
68952;BMP180;56000;51.146;17.112;2022-11-11T12:41:58;101636.60;;;16.42
68952;BMP180;56000;51.146;17.112;2022-11-11T12:44:53;101632.00;;;16.30
68952;BMP180;56000;51.146;17.112;2022-11-11T12:47:50;101638.00;;;16.18
68952;BMP180;56000;51.146;17.112;2022-11-11T12:50:43;101648.60;;;16.00
68952;BMP180;56000;51.146;17.112;2022-11-11T12:53:36;101653.40;;;15.88
68952;BMP180;56000;51.146;17.112;2022-11-11T12:56:33;101660.40;;;15.72
68952;BMP180;56000;51.146;17.112;2022-11-11T12:59:30;101663.40;;;15.60
68952;BMP180;56000;51.146;17.112;2022-11-11T13:02:34;101657.00;;;15.50
68952;BMP180;56000;51.146;17.112;2022-11-11T13:05:28;101649.80;;;15.40
68952;BMP180;56000;51.146;17.112;2022-11-11T13:08:46;101652.40;;;15.30
68952;BMP180;56000;51.146;17.112;2022-11-11T13:11:40;101659.60;;;15.20
68952;BMP180;56000;51.146;17.112;2022-11-11T13:14:43;101654.40;;;15.18
68952;BMP180;56000;51.146;17.112;2022-11-11T13:17:34;101647.00;;;15.10
68952;BMP180;56000;51.146;17.112;2022-11-11T13:20:41;101649.00;;;15.10
68952;BMP180;56000;51.146;17.112;2022-11-11T13:23:31;101646.00;;;15.20
68952;BMP180;56000;51.146;17.112;2022-11-11T13:26:32;101636.00;;;15.20
68952;BMP180;56000;51.146;17.112;2022-11-11T13:29:52;101636.80;;;15.30
68952;BMP180;56000;51.146;17.112;2022-11-11T13:32:47;101635.20;;;15.30
68952;BMP180;56000;51.146;17.112;2022-11-11T13:35:40;101643.60;;;15.30
68952;BMP180;56000;51.146;17.112;2022-11-11T13:38:32;101644.20;;;15.30
68952;BMP180;56000;51.146;17.112;2022-11-11T13:41:29;101647.20;;;15.24
68952;BMP180;56000;51.146;17.112;2022-11-11T13:44:21;101644.20;;;15.20
68952;BMP180;56000;51.146;17.112;2022-11-11T13:47:14;101646.80;;;15.20
68952;BMP180;56000;51.146;17.112;2022-11-11T13:50:08;101651.00;;;15.10
68952;BMP180;56000;51.146;17.112;2022-11-11T13:53:02;101654.40;;;15.10
68952;BMP180;56000;51.146;17.112;2022-11-11T13:55:51;101660.20;;;15.10
68952;BMP180;56000;51.146;17.112;2022-11-11T13:58:43;101657.40;;;15.10
68952;BMP180;56000;51.146;17.112;2022-11-11T14:01:37;101663.60;;;15.06
68952;BMP180;56000;51.146;17.112;2022-11-11T14:04:30;101652.80;;;15.00
68952;BMP180;56000;51.146;17.112;2022-11-11T14:07:53;101646.80;;;14.90
68952;BMP180;56000;51.146;17.112;2022-11-11T14:10:51;101641.80;;;14.80
68952;BMP180;56000;51.146;17.112;2022-11-11T14:13:41;101647.60;;;14.70
68952;BMP180;56000;51.146;17.112;2022-11-11T14:16:59;101647.60;;;14.60
68952;BMP180;56000;51.146;17.112;2022-11-11T14:19:48;101658.20;;;14.50
68952;BMP180;56000;51.146;17.112;2022-11-11T14:22:38;101665.40;;;14.40
68952;BMP180;56000;51.146;17.112;2022-11-11T14:25:27;101664.00;;;14.30
68952;BMP180;56000;51.146;17.112;2022-11-11T14:28:25;101662.00;;;14.20
68952;BMP180;56000;51.146;17.112;2022-11-11T14:31:53;101659.60;;;14.10
68952;BMP180;56000;51.146;17.112;2022-11-11T14:34:53;101663.00;;;14.00
68952;BMP180;56000;51.146;17.112;2022-11-11T14:37:56;101657.80;;;13.90
68952;BMP180;56000;51.146;17.112;2022-11-11T14:40:48;101658.20;;;13.80
68952;BMP180;56000;51.146;17.112;2022-11-11T14:43:40;101656.40;;;13.70
68952;BMP180;56000;51.146;17.112;2022-11-11T14:46:30;101666.60;;;13.60
68952;BMP180;56000;51.146;17.112;2022-11-11T14:49:45;101672.60;;;13.50
68952;BMP180;56000;51.146;17.112;2022-11-11T14:52:36;101679.80;;;13.30
68952;BMP180;56000;51.146;17.112;2022-11-11T14:55:27;101680.40;;;13.20
68952;BMP180;56000;51.146;17.112;2022-11-11T14:58:19;101678.40;;;13.10
68952;BMP180;56000;51.146;17.112;2022-11-11T15:01:13;101673.20;;;13.00
68952;BMP180;56000;51.146;17.112;2022-11-11T15:04:05;101667.40;;;13.00
68952;BMP180;56000;51.146;17.112;2022-11-11T15:06:57;101663.60;;;12.90
68952;BMP180;56000;51.146;17.112;2022-11-11T15:10:02;101662.60;;;12.80
68952;BMP180;56000;51.146;17.112;2022-11-11T15:13:03;101657.00;;;12.76
68952;BMP180;56000;51.146;17.112;2022-11-11T15:16:01;101660.60;;;12.70
68952;BMP180;56000;51.146;17.112;2022-11-11T15:19:19;101664.60;;;12.60
68952;BMP180;56000;51.146;17.112;2022-11-11T15:22:22;101678.00;;;12.50
68952;BMP180;56000;51.146;17.112;2022-11-11T15:25:24;101675.80;;;12.50
68952;BMP180;56000;51.146;17.112;2022-11-11T15:28:26;101671.80;;;12.40
68952;BMP180;56000;51.146;17.112;2022-11-11T15:31:24;101670.20;;;12.30
68952;BMP180;56000;51.146;17.112;2022-11-11T15:34:24;101674.20;;;12.20
68952;BMP180;56000;51.146;17.112;2022-11-11T15:37:17;101675.00;;;12.20
68952;BMP180;56000;51.146;17.112;2022-11-11T15:40:18;101670.60;;;12.10
68952;BMP180;56000;51.146;17.112;2022-11-11T15:43:15;101669.40;;;12.00
68952;BMP180;56000;51.146;17.112;2022-11-11T15:46:06;101670.20;;;11.94
68952;BMP180;56000;51.146;17.112;2022-11-11T15:48:56;101675.60;;;11.90
68952;BMP180;56000;51.146;17.112;2022-11-11T15:51:45;101679.00;;;11.90
68952;BMP180;56000;51.146;17.112;2022-11-11T15:54:35;101683.00;;;11.80
68952;BMP180;56000;51.146;17.112;2022-11-11T15:57:29;101676.00;;;11.80
68952;BMP180;56000;51.146;17.112;2022-11-11T16:00:28;101679.00;;;11.74
68952;BMP180;56000;51.146;17.112;2022-11-11T16:03:21;101677.20;;;11.70
68952;BMP180;56000;51.146;17.112;2022-11-11T16:06:13;101679.40;;;11.60
68952;BMP180;56000;51.146;17.112;2022-11-11T16:09:03;101684.20;;;11.52
68952;BMP180;56000;51.146;17.112;2022-11-11T16:11:53;101687.00;;;11.50
68952;BMP180;56000;51.146;17.112;2022-11-11T16:14:44;101685.60;;;11.46
68952;BMP180;56000;51.146;17.112;2022-11-11T16:17:36;101689.80;;;11.44
68952;BMP180;56000;51.146;17.112;2022-11-11T16:20:30;101690.00;;;11.40
68952;BMP180;56000;51.146;17.112;2022-11-11T16:23:21;101689.00;;;11.40